Time;durP1;ratioP1;P1;durP2;ratioP2;P2;SDS_P1;SDS_P2;PMS_P1;PMS_P2;Temp;Humidity;BMP_temperature;BMP_pressure;BME280_temperature;BME280_humidity;BME280_pressure;Samples;Min_cycle;Max_cycle;Signal;HPM_P1;HPM_P2
2024/04/21 00:00:05;;;;;;;3.83;2.53;;;9.90;62.50;;;;;;5330135;26;110562;-51
2024/04/21 00:02:30;;;;;;;4.82;2.90;;;10.10;62.30;;;;;;5330360;26;111025;-50
2024/04/21 00:04:56;;;;;;;3.78;2.50;;;10.10;62.30;;;;;;5328874;26;112362;-50
2024/04/21 00:07:22;;;;;;;4.22;3.00;;;9.90;62.70;;;;;;5328315;26;110799;-50
2024/04/21 00:09:47;;;;;;;4.72;3.28;;;9.80;63.40;;;;;;5329984;26;110434;-50
2024/04/21 00:12:13;;;;;;;3.05;2.60;;;9.80;64.10;;;;;;5330366;26;113385;-50
2024/04/21 00:14:39;;;;;;;3.65;2.85;;;9.80;63.70;;;;;;5329038;26;111515;-49
2024/04/21 00:17:04;;;;;;;6.07;2.97;;;9.70;63.70;;;;;;5328989;26;111849;-49
2024/04/21 00:19:30;;;;;;;2.60;2.40;;;9.60;64.40;;;;;;5329677;26;110532;-51
2024/04/21 00:21:55;;;;;;;4.07;3.03;;;9.20;64.70;;;;;;5330205;26;110525;-49
2024/04/21 00:24:27;;;;;;;6.75;3.20;;;8.90;65.70;;;;;;5329443;26;111103;-49
2024/04/21 00:26:54;;;;;;;3.17;2.90;;;8.90;66.00;;;;;;5328949;26;110600;-49
2024/04/21 00:29:19;;;;;;;4.38;3.38;;;9.00;65.60;;;;;;5329529;26;110457;-49
2024/04/21 00:31:45;;;;;;;4.72;3.20;;;8.90;66.20;;;;;;5329916;26;110607;-49
2024/04/21 00:34:11;;;;;;;3.88;3.47;;;8.90;66.60;;;;;;5328996;26;112456;-49
2024/04/21 00:36:38;;;;;;;5.68;3.45;;;9.00;66.20;;;;;;5328479;26;110905;-49
2024/04/21 00:39:03;;;;;;;4.10;3.33;;;9.10;65.50;;;;;;5329800;26;110690;-50
2024/04/21 00:41:29;;;;;;;4.07;3.78;;;9.10;66.00;;;;;;5329814;26;110701;-49
2024/04/21 00:43:55;;;;;;;4.93;3.88;;;9.10;65.90;;;;;;5328666;26;111642;-49
2024/04/21 00:46:20;;;;;;;4.35;3.95;;;9.10;65.90;;;;;;5326787;26;112866;-49
2024/04/21 00:48:47;;;;;;;5.20;3.80;;;9.10;66.00;;;;;;5329751;26;111049;-49
2024/04/21 00:51:13;;;;;;;3.85;3.45;;;8.90;67.10;;;;;;5329819;26;110844;-49
2024/04/21 00:53:39;;;;;;;5.78;3.50;;;9.10;66.70;;;;;;5328461;26;111845;-49
2024/04/21 00:56:07;;;;;;;3.70;3.40;;;8.90;67.10;;;;;;5328405;26;110855;-49
2024/04/21 00:58:33;;;;;;;4.80;3.85;;;8.20;68.90;;;;;;5329353;26;110458;-49
2024/04/21 01:01:00;;;;;;;6.22;3.67;;;7.80;70.10;;;;;;5329909;26;110584;-49
2024/04/21 01:03:26;;;;;;;4.85;3.70;;;7.90;70.00;;;;;;5328332;26;111451;-49
2024/04/21 01:05:52;;;;;;;5.57;4.05;;;8.20;69.30;;;;;;5328446;26;111753;-49
2024/04/21 01:08:18;;;;;;;4.20;3.80;;;8.30;68.90;;;;;;5329257;26;110541;-50
2024/04/21 01:10:43;;;;;;;5.75;4.22;;;8.40;69.00;;;;;;5329465;26;110533;-50
2024/04/21 01:13:12;;;;;;;5.47;3.97;;;8.40;68.70;;;;;;5328597;26;111286;-49
2024/04/21 01:15:38;;;;;;;4.32;3.70;;;8.50;68.60;;;;;;5328456;26;110823;-49
2024/04/21 01:18:05;;;;;;;6.32;3.90;;;8.60;68.30;;;;;;5329186;26;111228;-50
2024/04/21 01:20:34;;;;;;;4.80;3.30;;;8.80;68.30;;;;;;5329212;26;110660;-50
2024/04/21 01:23:00;;;;;;;5.18;4.03;;;8.90;67.40;;;;;;5328117;26;111185;-49
2024/04/21 01:25:26;;;;;;;4.55;4.15;;;8.60;67.70;;;;;;5328619;26;110463;-49
2024/04/21 01:27:52;;;;;;;4.63;4.10;;;8.30;68.90;;;;;;5327165;26;110850;-49
2024/04/21 01:30:18;;;;;;;5.35;4.20;;;8.30;69.20;;;;;;5329402;26;111032;-50
2024/04/21 01:32:44;;;;;;;6.63;4.40;;;8.40;68.80;;;;;;5327944;26;110995;-49
2024/04/21 01:35:09;;;;;;;5.32;4.10;;;8.40;68.80;;;;;;5328030;26;111547;-49
2024/04/21 01:37:35;;;;;;;5.85;4.75;;;8.40;68.70;;;;;;5328326;26;110504;-50
2024/04/21 01:40:02;;;;;;;4.28;3.97;;;8.50;68.70;;;;;;5327810;26;110789;-50
2024/04/21 01:42:28;;;;;;;4.30;3.90;;;8.50;68.90;;;;;;5327569;26;111735;-51
2024/04/21 01:44:55;;;;;;;4.97;4.07;;;8.50;69.10;;;;;;5327255;26;111602;-49
2024/04/21 01:47:21;;;;;;;6.88;4.32;;;8.30;69.30;;;;;;5328739;26;111050;-49
2024/04/21 01:49:48;;;;;;;8.27;4.78;;;8.30;70.10;;;;;;5328870;26;111098;-49
2024/04/21 01:52:14;;;;;;;4.63;4.10;;;8.30;69.80;;;;;;5327650;26;112727;-50
2024/04/21 01:54:40;;;;;;;6.07;4.18;;;8.30;69.70;;;;;;5327823;26;111810;-49
2024/04/21 01:57:06;;;;;;;5.60;4.50;;;8.40;69.30;;;;;;5328086;26;110625;-49
2024/04/21 01:59:31;;;;;;;5.05;4.25;;;8.30;69.70;;;;;;5328689;26;110407;-52
2024/04/21 02:01:57;;;;;;;7.00;4.57;;;8.20;70.00;;;;;;5327802;26;111013;-51
2024/04/21 02:04:23;;;;;;;4.57;4.18;;;8.20;70.50;;;;;;5325721;26;111750;-50
2024/04/21 02:06:50;;;;;;;5.38;4.68;;;8.30;70.70;;;;;;5328497;26;110796;-49
2024/04/21 02:09:16;;;;;;;5.55;4.40;;;8.30;71.10;;;;;;5328245;26;110915;-51
2024/04/21 02:11:41;;;;;;;6.28;5.25;;;8.10;71.90;;;;;;5327385;26;111225;-50
2024/04/21 02:14:07;;;;;;;8.27;5.28;;;7.80;72.90;;;;;;5326841;26;110473;-50
2024/04/21 02:16:33;;;;;;;5.38;4.72;;;7.80;73.60;;;;;;5328205;26;110585;-50
2024/04/21 02:18:58;;;;;;;8.65;6.47;;;7.20;73.60;;;;;;5328427;26;110570;-49
2024/04/21 02:21:24;;;;;;;7.38;6.28;;;7.30;74.50;;;;;;5327076;26;112520;-50
2024/04/21 02:23:50;;;;;;;8.82;6.50;;;7.40;73.70;;;;;;5325225;26;111652;-52
2024/04/21 02:26:15;;;;;;;6.72;6.03;;;7.40;73.90;;;;;;5328417;26;110387;-49
2024/04/21 02:28:41;;;;;;;6.32;5.35;;;7.40;73.20;;;;;;5329073;26;111028;-50
2024/04/21 02:31:08;;;;;;;5.63;5.13;;;7.40;73.70;;;;;;5324892;26;112341;-49
2024/04/21 02:33:33;;;;;;;5.50;4.90;;;7.50;73.80;;;;;;5315156;26;110384;-49
2024/04/21 02:35:59;;;;;;;6.68;4.53;;;7.40;74.20;;;;;;5316823;26;110572;-49
2024/04/21 02:38:24;;;;;;;5.93;4.93;;;7.60;74.00;;;;;;5304113;26;110664;-49
2024/04/21 02:40:50;;;;;;;7.20;5.55;;;7.70;73.60;;;;;;5319527;26;111136;-52
2024/04/21 02:43:16;;;;;;;5.60;4.95;;;7.50;73.40;;;;;;5314890;26;113524;-49
2024/04/21 02:45:41;;;;;;;5.43;4.80;;;7.60;73.20;;;;;;5322298;26;110506;-49
2024/04/21 02:48:07;;;;;;;5.13;4.63;;;7.40;73.60;;;;;;5308391;26;110560;-49
2024/04/21 02:50:37;;;;;;;5.13;4.60;;;7.60;73.00;;;;;;5320813;26;111098;-51
2024/04/21 02:53:03;;;;;;;5.95;5.35;;;7.30;73.60;;;;;;5318019;26;110781;-49
2024/04/21 02:55:28;;;;;;;8.70;5.00;;;7.40;73.80;;;;;;5330563;26;110579;-49
2024/04/21 02:57:54;;;;;;;6.90;5.15;;;7.30;73.80;;;;;;5330691;26;110808;-49
2024/04/21 03:00:21;;;;;;;5.57;5.07;;;7.10;74.30;;;;;;5329797;26;113841;-49
2024/04/21 03:02:46;;;;;;;7.65;5.22;;;7.30;73.60;;;;;;5328052;26;112967;-50
2024/04/21 03:05:12;;;;;;;6.75;5.28;;;7.30;73.30;;;;;;5330434;26;110415;-50
2024/04/21 03:07:38;;;;;;;6.28;4.57;;;7.00;74.00;;;;;;5331032;26;110492;-51
2024/04/21 03:10:04;;;;;;;5.75;4.93;;;7.10;73.70;;;;;;5329786;26;111535;-50
2024/04/21 03:12:29;;;;;;;5.25;4.75;;;7.00;73.50;;;;;;5329515;26;111049;-49
2024/04/21 03:14:55;;;;;;;8.25;5.13;;;7.00;74.20;;;;;;5330723;26;110782;-49
2024/04/21 03:17:21;;;;;;;8.32;5.00;;;7.20;74.20;;;;;;5330702;26;110760;-49
2024/04/21 03:19:50;;;;;;;5.38;4.80;;;7.10;74.40;;;;;;5329515;26;111101;-50
2024/04/21 03:22:16;;;;;;;6.03;5.38;;;7.00;74.30;;;;;;5329109;26;110785;-49
2024/04/21 03:24:42;;;;;;;5.93;5.38;;;6.90;74.90;;;;;;5330997;26;110901;-49
2024/04/21 03:27:08;;;;;;;5.78;5.18;;;7.10;74.80;;;;;;5330651;26;110713;-50
2024/04/21 03:29:33;;;;;;;6.55;5.25;;;7.30;74.20;;;;;;5329148;26;111167;-49
2024/04/21 03:31:59;;;;;;;5.25;4.78;;;7.30;74.00;;;;;;5329762;26;111438;-49
2024/04/21 03:34:25;;;;;;;5.22;4.72;;;7.30;73.40;;;;;;5330127;26;110762;-49
2024/04/21 03:36:51;;;;;;;5.30;4.82;;;7.40;72.80;;;;;;5330632;26;110820;-51
2024/04/21 03:39:18;;;;;;;6.50;4.70;;;7.40;72.40;;;;;;5329557;26;111222;-50
2024/04/21 03:41:44;;;;;;;6.78;4.47;;;7.40;71.70;;;;;;5327553;26;113874;-49
2024/04/21 03:44:10;;;;;;;6.30;4.65;;;7.50;71.00;;;;;;5330105;26;110871;-49
2024/04/21 03:46:36;;;;;;;4.88;4.40;;;7.40;70.50;;;;;;5330250;26;110580;-49
2024/04/21 03:49:02;;;;;;;4.75;4.05;;;7.30;71.50;;;;;;5329118;26;112538;-49
2024/04/21 03:51:28;;;;;;;4.53;4.13;;;7.30;71.30;;;;;;5329064;26;111500;-49
2024/04/21 03:53:54;;;;;;;5.32;3.95;;;7.40;70.50;;;;;;5330298;26;110477;-50
2024/04/21 03:56:19;;;;;;;4.15;3.75;;;7.40;70.10;;;;;;5330319;26;110485;-49
2024/04/21 03:58:45;;;;;;;4.10;3.45;;;7.40;69.00;;;;;;5328936;26;111408;-50
2024/04/21 04:01:11;;;;;;;6.43;5.20;;;7.50;68.40;;;;;;5328922;26;110596;-53
2024/04/21 04:03:40;;;;;;;5.05;4.00;;;7.40;68.10;;;;;;5330010;26;110614;-49
2024/04/21 04:06:07;;;;;;;5.70;3.65;;;7.30;68.40;;;;;;5330252;26;110634;-50
2024/04/21 04:08:32;;;;;;;5.65;3.47;;;7.30;68.10;;;;;;5328853;26;112363;-51
2024/04/21 04:10:58;;;;;;;3.50;3.20;;;7.20;68.20;;;;;;5328898;26;110920;-49
2024/04/21 04:13:23;;;;;;;3.80;3.40;;;7.10;68.00;;;;;;5329996;26;110838;-49
2024/04/21 04:15:49;;;;;;;4.45;3.28;;;7.10;67.90;;;;;;5330024;26;110741;-49
2024/04/21 04:18:15;;;;;;;3.72;3.17;;;7.30;68.10;;;;;;5329059;26;111707;-50
2024/04/21 04:20:40;;;;;;;3.83;3.40;;;7.20;67.70;;;;;;5328709;26;111668;-49
2024/04/21 04:23:06;;;;;;;3.40;3.10;;;7.20;67.50;;;;;;5330064;26;111328;-50
2024/04/21 04:25:32;;;;;;;3.92;3.17;;;7.20;67.80;;;;;;5330235;26;110642;-49
2024/04/21 04:27:58;;;;;;;4.75;3.30;;;7.30;67.70;;;;;;5329136;26;111290;-49
2024/04/21 04:30:23;;;;;;;5.07;3.38;;;7.20;67.80;;;;;;5328871;26;111753;-49
2024/04/21 04:32:49;;;;;;;3.60;3.30;;;7.10;68.40;;;;;;5329779;26;110736;-50
2024/04/21 04:35:16;;;;;;;3.63;3.20;;;7.10;68.90;;;;;;5327979;26;110657;-52
2024/04/21 04:37:42;;;;;;;4.32;3.55;;;7.10;68.60;;;;;;5328218;26;110966;-49
2024/04/21 04:40:08;;;;;;;3.80;3.47;;;7.20;68.80;;;;;;5328834;26;110475;-50
2024/04/21 04:42:34;;;;;;;4.95;3.40;;;7.00;69.40;;;;;;5329541;26;110619;-50
2024/04/21 04:45:00;;;;;;;6.22;3.47;;;7.00;68.60;;;;;;5329943;26;111441;-50
2024/04/21 04:47:26;;;;;;;4.45;3.05;;;7.00;67.90;;;;;;5328795;26;111213;-49
2024/04/21 04:49:52;;;;;;;3.25;2.60;;;7.10;67.60;;;;;;5328443;26;112082;-50
2024/04/21 04:52:18;;;;;;;3.40;2.97;;;7.20;66.80;;;;;;5330084;26;112912;-49
2024/04/21 04:54:43;;;;;;;3.28;2.80;;;7.30;66.10;;;;;;5329756;26;111456;-53
2024/04/21 04:57:09;;;;;;;3.15;2.85;;;7.30;65.60;;;;;;5328527;26;113214;-50
2024/04/21 04:59:34;;;;;;;3.85;2.72;;;7.30;64.80;;;;;;5328452;26;110354;-51
2024/04/21 05:02:00;;;;;;;2.78;2.45;;;7.30;64.50;;;;;;5329495;26;111225;-51
2024/04/21 05:04:26;;;;;;;3.50;2.28;;;7.40;64.50;;;;;;5329853;26;110554;-52
2024/04/21 05:06:51;;;;;;;2.97;2.30;;;7.40;63.00;;;;;;5328278;26;111047;-50
2024/04/21 05:09:17;;;;;;;2.80;2.30;;;7.40;63.10;;;;;;5328439;26;110659;-49
2024/04/21 05:11:43;;;;;;;2.33;2.05;;;7.40;63.00;;;;;;5329553;26;110483;-49
2024/04/21 05:14:08;;;;;;;3.40;2.25;;;7.60;61.90;;;;;;5328119;26;110581;-49
2024/04/21 05:16:34;;;;;;;3.88;2.30;;;7.60;61.60;;;;;;5328421;26;111440;-50
2024/04/21 05:18:59;;;;;;;4.88;2.58;;;7.60;61.20;;;;;;5328129;26;110671;-49
2024/04/21 05:21:25;;;;;;;3.03;2.08;;;7.70;61.40;;;;;;5329416;26;110587;-48
2024/04/21 05:23:51;;;;;;;2.65;2.08;;;7.90;61.20;;;;;;5328900;26;110792;-49
2024/04/21 05:26:16;;;;;;;2.13;1.92;;;8.00;60.50;;;;;;5328820;26;111101;-50
2024/04/21 05:28:42;;;;;;;2.95;2.10;;;8.10;60.20;;;;;;5328087;26;111980;-54
2024/04/21 05:31:08;;;;;;;5.38;3.70;;;8.20;59.60;;;;;;5329123;26;110621;-49
2024/04/21 05:33:34;;;;;;;5.57;3.03;;;8.30;59.70;;;;;;5329750;26;110905;-49
2024/04/21 05:36:00;;;;;;;3.63;2.15;;;8.30;59.00;;;;;;5327970;26;112311;-49
2024/04/21 05:38:26;;;;;;;2.55;2.33;;;8.50;58.70;;;;;;5328040;26;111601;-49
2024/04/21 05:40:51;;;;;;;2.58;2.05;;;8.60;58.40;;;;;;5328913;26;110394;-49
2024/04/21 05:43:17;;;;;;;2.45;2.25;;;8.60;57.70;;;;;;5329231;26;110726;-49
2024/04/21 05:45:42;;;;;;;4.25;2.20;;;8.50;58.30;;;;;;5327675;26;113511;-49
2024/04/21 05:48:08;;;;;;;3.80;2.42;;;8.60;58.60;;;;;;5327223;26;110763;-49
2024/04/21 05:50:34;;;;;;;3.10;2.22;;;8.80;57.90;;;;;;5328801;26;110891;-50
2024/04/21 05:52:59;;;;;;;3.80;2.22;;;8.90;57.40;;;;;;5328866;26;110557;-50
2024/04/21 05:55:25;;;;;;;2.55;2.15;;;9.00;57.40;;;;;;5327541;26;111559;-50
2024/04/21 05:57:51;;;;;;;2.38;2.13;;;9.10;57.00;;;;;;5327759;26;112022;-50
2024/04/21 06:00:17;;;;;;;6.57;2.40;;;9.30;56.50;;;;;;5328444;26;111614;-49
2024/04/21 06:02:42;;;;;;;3.20;2.35;;;9.40;56.80;;;;;;5328823;26;110554;-50
2024/04/21 06:05:08;;;;;;;4.05;2.25;;;9.50;55.90;;;;;;5327422;26;112786;-49
2024/04/21 06:07:33;;;;;;;3.33;2.15;;;9.70;55.10;;;;;;5325560;26;111876;-51
2024/04/21 06:09:59;;;;;;;2.63;2.03;;;9.80;54.30;;;;;;5328388;26;110652;-50
2024/04/21 06:12:25;;;;;;;2.38;2.08;;;10.00;53.70;;;;;;5328216;26;110828;-49
2024/04/21 06:14:51;;;;;;;2.50;2.00;;;10.10;53.20;;;;;;5327293;26;111114;-50
2024/04/21 06:17:17;;;;;;;4.65;1.73;;;10.20;53.40;;;;;;5326980;26;111696;-50
2024/04/21 06:19:42;;;;;;;1.90;1.73;;;10.30;52.80;;;;;;5328158;26;111165;-52
2024/04/21 06:22:09;;;;;;;2.08;1.58;;;10.50;53.00;;;;;;5328093;26;110707;-50
2024/04/21 06:24:35;;;;;;;5.03;2.50;;;10.60;52.30;;;;;;5328373;26;112372;-50
2024/04/21 06:27:02;;;;;;;4.03;2.85;;;10.80;52.50;;;;;;5330237;26;110826;-52
2024/04/21 06:29:27;;;;;;;4.00;2.42;;;10.90;52.00;;;;;;5331134;26;110770;-49
2024/04/21 06:31:53;;;;;;;3.60;1.90;;;11.10;50.70;;;;;;5331415;26;110675;-53
2024/04/21 06:34:19;;;;;;;3.40;2.20;;;11.30;51.00;;;;;;5329823;26;111106;-51
2024/04/21 06:36:45;;;;;;;2.50;1.83;;;11.50;49.80;;;;;;5329760;26;112034;-50
2024/04/21 06:39:11;;;;;;;2.85;2.10;;;11.70;49.30;;;;;;5330778;26;110696;-50
2024/04/21 06:41:36;;;;;;;2.60;2.08;;;11.80;48.70;;;;;;5331219;26;111010;-52
2024/04/21 06:44:02;;;;;;;2.35;2.00;;;12.00;48.80;;;;;;5329960;26;111087;-50
2024/04/21 06:46:27;;;;;;;2.60;2.40;;;12.20;48.40;;;;;;5327893;26;111754;-50
2024/04/21 06:48:53;;;;;;;2.65;1.80;;;12.40;48.00;;;;;;5330740;26;110466;-50
2024/04/21 06:51:19;;;;;;;2.63;1.90;;;12.60;47.70;;;;;;5331071;26;110593;-50
2024/04/21 06:53:46;;;;;;;2.92;1.70;;;12.80;47.20;;;;;;5330042;26;112848;-50
2024/04/21 06:56:12;;;;;;;2.28;1.77;;;12.80;46.30;;;;;;5329763;26;110768;-51
2024/04/21 06:58:38;;;;;;;2.17;1.70;;;12.80;45.60;;;;;;5330580;26;110551;-50
2024/04/21 07:01:03;;;;;;;2.35;1.50;;;12.90;45.50;;;;;;5331020;26;111360;-50
2024/04/21 07:03:29;;;;;;;2.92;1.40;;;13.00;45.20;;;;;;5329628;26;112138;-50
2024/04/21 07:05:55;;;;;;;2.67;1.40;;;13.10;45.70;;;;;;5337242;26;111680;-50
2024/04/21 07:08:20;;;;;;;3.55;1.40;;;13.20;46.00;;;;;;5349768;26;111187;-50
2024/04/21 07:10:46;;;;;;;5.65;1.42;;;13.20;46.20;;;;;;5350870;26;111615;-50
2024/04/21 07:13:12;;;;;;;2.58;1.58;;;13.20;47.00;;;;;;5355002;26;111562;-50
2024/04/21 07:15:39;;;;;;;2.00;1.55;;;13.20;46.80;;;;;;5352214;26;112148;-50
2024/04/21 07:18:04;;;;;;;1.50;1.38;;;13.30;47.00;;;;;;5349184;26;111145;-50
2024/04/21 07:20:30;;;;;;;1.85;1.60;;;13.60;47.90;;;;;;5348652;26;110757;-50
2024/04/21 07:22:56;;;;;;;1.83;1.52;;;13.90;46.80;;;;;;5341154;26;111061;-50
2024/04/21 07:25:21;;;;;;;1.98;1.42;;;13.90;46.50;;;;;;5353754;26;110885;-50
2024/04/21 07:27:47;;;;;;;1.58;1.40;;;13.80;47.40;;;;;;5346653;26;110612;-50
2024/04/21 07:30:13;;;;;;;2.72;1.33;;;13.60;47.30;;;;;;5359454;26;110969;-50
2024/04/21 07:32:39;;;;;;;3.15;1.67;;;13.60;46.90;;;;;;5356002;26;112603;-54
2024/04/21 07:35:06;;;;;;;3.08;1.60;;;13.70;47.30;;;;;;5356373;26;111900;-50
2024/04/21 07:37:31;;;;;;;1.80;1.10;;;13.70;47.70;;;;;;5337757;26;110870;-51
2024/04/21 07:39:57;;;;;;;2.15;1.00;;;13.80;47.60;;;;;;5330380;26;110692;-51
2024/04/21 07:42:23;;;;;;;1.58;1.02;;;13.60;48.10;;;;;;5339155;26;110968;-51
2024/04/21 07:44:48;;;;;;;1.05;0.90;;;13.90;48.10;;;;;;5328870;26;111630;-50
2024/04/21 07:47:14;;;;;;;1.55;0.90;;;14.00;47.80;;;;;;5341690;26;110889;-50
2024/04/21 07:49:40;;;;;;;3.70;1.45;;;13.90;47.00;;;;;;5334567;26;110576;-51
2024/04/21 07:52:05;;;;;;;2.10;0.80;;;14.20;47.10;;;;;;5326555;26;111399;-52
2024/04/21 07:54:31;;;;;;;1.33;0.90;;;14.30;46.20;;;;;;5328911;26;111526;-51
2024/04/21 07:56:57;;;;;;;1.50;0.75;;;14.20;46.10;;;;;;5329899;26;111242;-50
2024/04/21 07:59:23;;;;;;;1.65;1.10;;;14.30;45.30;;;;;;5330434;26;110542;-52
2024/04/21 08:01:48;;;;;;;1.27;0.80;;;14.30;45.00;;;;;;5329045;26;111066;-52
2024/04/21 08:04:14;;;;;;;1.33;1.00;;;14.10;45.10;;;;;;5329093;26;110988;-52
2024/04/21 08:06:39;;;;;;;2.17;0.80;;;13.90;44.90;;;;;;5329975;26;110971;-52
2024/04/21 08:09:05;;;;;;;1.35;1.00;;;14.10;43.70;;;;;;5330150;26;111290;-50
2024/04/21 08:11:31;;;;;;;2.83;0.80;;;14.00;44.40;;;;;;5328893;26;112816;-51
2024/04/21 08:13:57;;;;;;;1.60;0.80;;;14.10;44.60;;;;;;5328709;26;110854;-50
2024/04/21 08:16:22;;;;;;;1.20;0.95;;;14.40;44.40;;;;;;5329862;26;111218;-50
2024/04/21 08:18:48;;;;;;;1.30;0.60;;;14.50;44.30;;;;;;5341825;26;110790;-50
2024/04/21 08:21:14;;;;;;;1.98;0.80;;;14.70;42.20;;;;;;5340920;26;111172;-52
2024/04/21 08:23:40;;;;;;;2.05;0.88;;;14.80;42.80;;;;;;5328789;26;111695;-50
2024/04/21 08:26:06;;;;;;;0.47;0.47;;;14.70;44.60;;;;;;5330104;26;111069;-51
2024/04/21 08:28:32;;;;;;;1.33;0.60;;;15.00;42.40;;;;;;5329869;26;110823;-50
2024/04/21 08:30:57;;;;;;;1.30;0.50;;;14.60;42.90;;;;;;5329083;26;111489;-50
2024/04/21 08:33:24;;;;;;;0.55;0.50;;;15.10;42.20;;;;;;5328821;26;110799;-52
2024/04/21 08:35:57;;;;;;;1.65;0.85;;;15.40;41.10;;;;;;5329591;26;110953;-50
2024/04/21 08:38:23;;;;;;;1.17;0.40;;;15.90;41.00;;;;;;5329700;26;110599;-51
2024/04/21 08:40:50;;;;;;;2.60;0.40;;;16.20;40.30;;;;;;5328655;26;111097;-50
2024/04/21 08:43:26;;;;;;;1.75;0.32;;;16.10;40.40;;;;;;5328818;26;110955;-50
2024/04/21 08:45:55;;;;;;;0.43;0.40;;;15.90;40.60;;;;;;5319159;26;111187;-50
2024/04/21 08:48:22;;;;;;;4.95;0.88;;;15.80;40.80;;;;;;5327928;26;110798;-52
2024/04/21 08:50:49;;;;;;;0.40;0.40;;;15.90;40.20;;;;;;5328697;26;112268;-50
2024/04/21 08:53:14;;;;;;;1.50;0.40;;;15.80;40.10;;;;;;5328637;26;110677;-50
2024/04/21 08:55:46;;;;;;;0.60;0.45;;;15.70;39.90;;;;;;5329960;26;110484;-50
2024/04/21 08:58:12;;;;;;;0.43;0.40;;;15.40;40.20;;;;;;5330170;26;110431;-50
2024/04/21 09:00:38;;;;;;;0.52;0.30;;;15.40;39.90;;;;;;5328400;26;112332;-50
2024/04/21 09:03:04;;;;;;;1.48;0.50;;;15.60;39.00;;;;;;5328624;26;111024;-50
2024/04/21 09:05:32;;;;;;;1.08;0.30;;;16.10;37.60;;;;;;5329255;26;110826;-50
2024/04/21 09:07:58;;;;;;;0.77;0.30;;;16.50;37.70;;;;;;5329940;26;110620;-50
2024/04/21 09:10:25;;;;;;;1.83;0.35;;;17.00;36.60;;;;;;5328448;26;111610;-50
2024/04/21 09:12:52;;;;;;;1.85;0.30;;;17.10;35.90;;;;;;5326614;26;113505;-51
2024/04/21 09:15:18;;;;;;;1.42;0.47;;;16.90;35.90;;;;;;5329237;26;110475;-50
2024/04/21 09:17:43;;;;;;;0.60;0.40;;;17.20;35.90;;;;;;5329770;26;111075;-50
2024/04/21 09:20:10;;;;;;;1.58;0.38;;;17.30;35.90;;;;;;5326860;26;112433;-50
2024/04/21 09:22:36;;;;;;;3.03;0.50;;;17.10;35.80;;;;;;5328228;26;110496;-54
2024/04/21 09:25:03;;;;;;;2.10;0.45;;;17.40;36.10;;;;;;5329642;26;110876;-50
2024/04/21 09:27:29;;;;;;;0.70;0.40;;;17.40;36.30;;;;;;5329256;26;110606;-50
2024/04/21 09:29:57;;;;;;;2.25;0.50;;;17.60;36.10;;;;;;5328359;26;111653;-50
2024/04/21 09:32:24;;;;;;;1.83;0.43;;;17.80;36.00;;;;;;5328265;26;110908;-50
2024/04/21 09:34:50;;;;;;;0.45;0.45;;;17.50;36.50;;;;;;5329207;26;110659;-50
2024/04/21 09:37:17;;;;;;;0.45;0.30;;;17.20;36.70;;;;;;5329403;26;111143;-50
2024/04/21 09:39:45;;;;;;;0.60;0.40;;;17.00;36.10;;;;;;5328073;26;111142;-50
2024/04/21 09:42:14;;;;;;;0.40;0.40;;;17.90;35.30;;;;;;5328145;26;110646;-50
2024/04/21 09:44:41;;;;;;;0.77;0.45;;;17.80;35.80;;;;;;5328685;26;110423;-50
2024/04/21 09:47:07;;;;;;;0.38;0.35;;;17.60;36.10;;;;;;5329229;26;110790;-50
2024/04/21 09:49:34;;;;;;;1.55;0.90;;;17.80;35.50;;;;;;5327756;26;111153;-51
2024/04/21 09:52:05;;;;;;;0.57;0.57;;;18.00;36.20;;;;;;5327435;26;110491;-51
2024/04/21 09:54:31;;;;;;;1.58;1.48;;;17.70;34.90;;;;;;5328632;26;110905;-51
2024/04/21 09:57:11;;;;;;;0.85;0.80;;;17.60;34.30;;;;;;5328873;26;110517;-49
2024/04/21 09:59:38;;;;;;;2.28;0.98;;;16.90;34.90;;;;;;5329044;26;113130;-51
2024/04/21 10:02:13;;;;;;;1.00;0.40;;;16.80;36.40;;;;;;5330457;26;110411;-50
2024/04/21 10:04:42;;;;;;;0.80;0.50;;;17.20;35.30;;;;;;5331145;26;110816;-54
2024/04/21 10:07:08;;;;;;;0.77;0.52;;;17.90;34.10;;;;;;5331431;26;110693;-50
2024/04/21 10:09:35;;;;;;;0.57;0.40;;;17.40;34.20;;;;;;5330669;26;111065;-50
2024/04/21 10:12:00;;;;;;;1.10;0.40;;;18.10;34.00;;;;;;5330113;26;110484;-50
2024/04/21 10:14:26;;;;;;;0.82;0.40;;;18.50;33.50;;;;;;5331248;26;110650;-50
2024/04/21 10:16:52;;;;;;;7.35;4.25;;;18.20;32.90;;;;;;5329537;26;111021;-51
2024/04/21 10:19:22;;;;;;;0.77;0.50;;;18.90;33.30;;;;;;5330027;26;111033;-51
2024/04/21 10:21:48;;;;;;;0.65;0.50;;;18.80;32.50;;;;;;5330238;26;110402;-51
2024/04/21 10:24:13;;;;;;;0.95;0.70;;;18.80;32.30;;;;;;5330842;26;110764;-51
2024/04/21 10:26:39;;;;;;;2.67;2.47;;;19.50;33.50;;;;;;5331938;26;110620;-51
2024/04/21 10:29:11;;;;;;;1.30;1.00;;;21.00;30.90;;;;;;5330072;26;111858;-52
2024/04/21 10:31:37;;;;;;;0.98;0.98;;;20.30;29.30;;;;;;5328384;26;113880;-51
2024/04/21 10:34:09;;;;;;;1.80;0.50;;;20.80;29.20;;;;;;5331070;26;110408;-52
2024/04/21 10:36:40;;;;;;;1.00;1.00;;;20.70;28.40;;;;;;5331322;26;110633;-51
2024/04/21 10:39:06;;;;;;;0.87;0.50;;;20.20;29.10;;;;;;5330047;26;111173;-50
2024/04/21 10:41:43;;;;;;;2.38;1.17;;;20.90;29.20;;;;;;5329933;26;112893;-51
2024/04/21 10:44:12;;;;;;;2.75;1.77;;;20.80;30.90;;;;;;5330889;26;110573;-51
2024/04/21 10:46:38;;;;;;;6.10;4.55;;;20.10;31.10;;;;;;5331138;26;110528;-51
2024/04/21 10:49:04;;;;;;;1.40;0.70;;;19.50;31.00;;;;;;5329854;26;111178;-51
2024/04/21 10:51:31;;;;;;;2.90;2.42;;;19.00;31.00;;;;;;5329831;26;111811;-52
2024/04/21 10:53:57;;;;;;;1.90;1.63;;;19.30;31.70;;;;;;5330991;26;110975;-52
2024/04/21 10:56:23;;;;;;;1.40;0.90;;;18.90;31.20;;;;;;5331025;26;110809;-51
2024/04/21 10:58:49;;;;;;;1.98;1.67;;;18.80;31.60;;;;;;5329932;26;111098;-51
2024/04/21 11:01:15;;;;;;;3.25;1.60;;;18.80;32.50;;;;;;5329819;26;111629;-52
2024/04/21 11:03:44;;;;;;;2.13;1.90;;;18.60;32.50;;;;;;5330659;26;111488;-53
2024/04/21 11:06:10;;;;;;;2.33;1.85;;;18.60;33.00;;;;;;5330671;26;110641;-51
2024/04/21 11:08:36;;;;;;;1.10;0.93;;;19.20;32.70;;;;;;5329642;26;112565;-50
2024/04/21 11:11:02;;;;;;;1.50;1.30;;;18.90;31.80;;;;;;5328741;26;110681;-50
2024/04/21 11:13:28;;;;;;;1.38;1.27;;;18.60;33.10;;;;;;5330823;26;110675;-50
2024/04/21 11:15:54;;;;;;;1.10;0.80;;;18.90;32.40;;;;;;5330553;26;110557;-50
2024/04/21 11:18:19;;;;;;;1.25;0.73;;;19.30;32.60;;;;;;5329783;26;111666;-50
2024/04/21 11:20:45;;;;;;;1.65;0.55;;;18.40;32.50;;;;;;5329517;26;111746;-51
2024/04/21 11:23:14;;;;;;;1.45;0.55;;;18.00;34.30;;;;;;5330974;26;110908;-51
2024/04/21 11:25:40;;;;;;;0.80;0.70;;;17.30;35.40;;;;;;5331047;26;111121;-50
2024/04/21 11:28:14;;;;;;;1.10;0.98;;;17.30;36.10;;;;;;5329719;26;111082;-51
2024/04/21 11:30:40;;;;;;;1.30;1.10;;;17.30;35.90;;;;;;5329093;26;111909;-50
2024/04/21 11:33:06;;;;;;;0.93;0.88;;;17.00;36.20;;;;;;5330633;26;110630;-51
2024/04/21 11:35:32;;;;;;;1.52;0.85;;;16.70;36.20;;;;;;5330801;26;111171;-50
2024/04/21 11:37:58;;;;;;;1.52;0.98;;;16.90;36.30;;;;;;5329342;26;111391;-50
2024/04/21 11:40:24;;;;;;;0.98;0.82;;;16.80;36.00;;;;;;5329608;26;110452;-50
2024/04/21 11:42:50;;;;;;;0.52;0.52;;;16.40;35.70;;;;;;5330076;26;110383;-50
2024/04/21 11:45:29;;;;;;;1.55;0.52;;;16.20;36.30;;;;;;5330683;26;110869;-51
2024/04/21 11:48:00;;;;;;;2.28;1.40;;;16.50;36.20;;;;;;5329382;26;111125;-50
2024/04/21 11:50:26;;;;;;;1.10;0.90;;;16.50;37.30;;;;;;5329356;26;111703;-50
2024/04/21 11:52:53;;;;;;;2.53;1.80;;;16.30;36.50;;;;;;5330254;26;110961;-51
2024/04/21 11:55:18;;;;;;;4.05;2.20;;;16.00;36.90;;;;;;5329879;26;110553;-50
2024/04/21 11:57:44;;;;;;;4.63;2.72;;;15.90;36.80;;;;;;5329246;26;112482;-50
2024/04/21 12:00:10;;;;;;;1.30;0.38;;;16.00;36.90;;;;;;5329108;26;110829;-51
2024/04/21 12:02:36;;;;;;;1.02;0.50;;;15.60;37.40;;;;;;5330551;26;110588;-50
2024/04/21 12:05:02;;;;;;;1.83;0.80;;;15.00;37.90;;;;;;5330418;26;110626;-50
2024/04/21 12:07:27;;;;;;;2.50;0.52;;;14.80;38.90;;;;;;5328995;26;111001;-51
2024/04/21 12:09:53;;;;;;;0.60;0.38;;;14.90;39.60;;;;;;5329198;26;113008;-50
2024/04/21 12:12:19;;;;;;;0.70;0.40;;;14.80;38.50;;;;;;5330135;26;110394;-50
2024/04/21 12:14:44;;;;;;;2.60;0.57;;;14.50;38.40;;;;;;5330317;26;110483;-50
2024/04/21 12:17:16;;;;;;;2.22;0.40;;;14.60;38.90;;;;;;5329000;26;111226;-50
2024/04/21 12:19:45;;;;;;;2.20;0.40;;;14.90;38.70;;;;;;5329340;26;111863;-51
2024/04/21 12:22:11;;;;;;;4.18;0.40;;;15.40;39.10;;;;;;5329606;26;110971;-50
2024/04/21 12:24:36;;;;;;;1.58;0.57;;;14.70;39.50;;;;;;5330132;26;110509;-50
2024/04/21 12:27:02;;;;;;;4.38;0.60;;;14.60;40.70;;;;;;5329734;26;111194;-50
2024/04/21 12:29:28;;;;;;;0.60;0.30;;;14.60;41.10;;;;;;5328764;26;111587;-50
2024/04/21 12:31:53;;;;;;;0.77;0.43;;;14.60;41.60;;;;;;5329954;26;110974;-50
2024/04/21 12:34:19;;;;;;;2.65;0.60;;;14.60;42.10;;;;;;5328262;26;110914;-50